Time;durP1;ratioP1;P1;durP2;ratioP2;P2;SDS_P1;SDS_P2;PMS_P1;PMS_P2;Temp;Humidity;BMP_temperature;BMP_pressure;BME280_temperature;BME280_humidity;BME280_pressure;Samples;Min_cycle;Max_cycle;Signal;HPM_P1;HPM_P2
2021/04/07 00:02:27;;;;;;;265.95;255.95;;;-0.50;99.90;;;;;;4937887;29;20228;-82
2021/04/07 00:04:59;;;;;;;270.33;258.67;;;-0.50;99.90;;;;;;4937490;29;20197;-81
2021/04/07 00:07:26;;;;;;;303.85;291.08;;;-0.50;99.90;;;;;;4938884;29;20193;-82
2021/04/07 00:09:52;;;;;;;298.67;286.77;;;-0.50;99.90;;;;;;4937272;29;20704;-82
2021/04/07 00:12:20;;;;;;;278.33;263.92;;;-0.40;99.90;;;;;;4937297;29;20204;-81
2021/04/07 00:14:47;;;;;;;277.10;266.10;;;-0.50;99.90;;;;;;4937386;29;20284;-82
2021/04/07 00:17:13;;;;;;;277.13;266.08;;;-0.40;99.90;;;;;;4937398;29;20201;-82
2021/04/07 00:19:41;;;;;;;285.63;274.42;;;-0.40;99.90;;;;;;4937034;29;20252;-82
2021/04/07 00:22:07;;;;;;;274.50;264.00;;;-0.50;99.90;;;;;;4935761;29;20193;-82
2021/04/07 00:24:33;;;;;;;284.73;272.70;;;-0.40;99.90;;;;;;4937177;29;20201;-82
2021/04/07 00:27:06;;;;;;;281.33;269.92;;;-0.30;99.90;;;;;;4936880;29;20221;-82
2021/04/07 00:29:32;;;;;;;286.20;275.20;;;-0.40;99.90;;;;;;4937021;29;20231;-82
2021/04/07 00:31:59;;;;;;;279.45;268.17;;;-0.40;99.90;;;;;;4936816;29;20196;-82
2021/04/07 00:34:25;;;;;;;305.77;292.90;;;-0.40;99.90;;;;;;4936937;29;20208;-81
2021/04/07 00:36:55;;;;;;;293.77;280.65;;;-0.40;99.90;;;;;;4935787;29;20197;-82
2021/04/07 00:39:21;;;;;;;301.40;290.13;;;-0.50;99.90;;;;;;4936958;29;20264;-82
2021/04/07 00:41:48;;;;;;;301.75;289.33;;;-0.50;99.90;;;;;;4936832;29;20252;-82
2021/04/07 00:44:14;;;;;;;287.33;276.30;;;-0.40;99.90;;;;;;4936865;29;20676;-82
2021/04/07 00:46:41;;;;;;;272.95;262.45;;;-0.40;99.90;;;;;;4936864;29;20208;-82
2021/04/07 00:49:08;;;;;;;288.88;277.38;;;-0.50;99.90;;;;;;4935413;29;20225;-82
2021/04/07 00:51:34;;;;;;;282.92;272.15;;;-0.40;99.90;;;;;;4935632;29;20300;-82
2021/04/07 00:54:02;;;;;;;290.08;278.52;;;-0.50;99.90;;;;;;4936622;29;20603;-82
2021/04/07 00:56:28;;;;;;;274.30;263.83;;;-0.40;99.90;;;;;;4936607;29;20220;-82
2021/04/07 00:58:54;;;;;;;287.25;274.77;;;-0.40;99.90;;;;;;4936447;29;20201;-82
2021/04/07 01:01:21;;;;;;;275.98;264.55;;;-0.40;99.90;;;;;;4936523;29;20193;-82
2021/04/07 01:03:47;;;;;;;288.77;277.77;;;-0.40;99.90;;;;;;4936245;29;20205;-82
2021/04/07 01:06:14;;;;;;;284.40;273.27;;;-0.40;99.90;;;;;;4935220;29;20201;-82
2021/04/07 01:08:40;;;;;;;296.52;282.95;;;-0.40;99.90;;;;;;4935939;29;20245;-82
2021/04/07 01:11:08;;;;;;;272.88;262.55;;;-0.40;99.90;;;;;;4936430;29;20278;-82
2021/04/07 01:13:34;;;;;;;276.58;266.27;;;-0.30;99.90;;;;;;4936017;29;20211;-82
2021/04/07 01:16:01;;;;;;;289.90;279.00;;;-0.40;99.90;;;;;;4936272;29;20222;-82
2021/04/07 01:18:31;;;;;;;291.20;280.40;;;-0.20;99.90;;;;;;4936100;29;20551;-82
2021/04/07 01:20:58;;;;;;;290.10;277.65;;;-0.30;99.90;;;;;;4934902;29;20193;-82
2021/04/07 01:23:25;;;;;;;278.77;268.50;;;-0.30;99.90;;;;;;4935918;29;20598;-82
2021/04/07 01:25:52;;;;;;;276.90;266.42;;;-0.20;99.90;;;;;;4936019;29;20724;-82
2021/04/07 01:28:20;;;;;;;296.33;285.20;;;-0.20;99.90;;;;;;4935564;29;20300;-81
2021/04/07 01:30:46;;;;;;;276.35;265.95;;;-0.20;99.90;;;;;;4934894;29;20657;-82
2021/04/07 01:33:20;;;;;;;281.55;271.15;;;-0.10;99.90;;;;;;4935509;29;20185;-82
2021/04/07 01:35:47;;;;;;;279.73;269.42;;;-0.10;99.90;;;;;;4934749;29;20752;-81
2021/04/07 01:38:13;;;;;;;302.85;290.60;;;-0.20;99.90;;;;;;4935578;29;20197;-82
2021/04/07 01:40:41;;;;;;;272.95;262.35;;;-0.20;99.90;;;;;;4935739;29;20224;-82
2021/04/07 01:43:10;;;;;;;292.55;281.55;;;-0.20;99.90;;;;;;4935774;29;20288;-82
2021/04/07 01:45:37;;;;;;;280.95;270.65;;;-0.20;99.90;;;;;;4935324;29;20227;-82
2021/04/07 01:48:06;;;;;;;280.95;270.58;;;-0.20;99.90;;;;;;4936026;29;20283;-82
2021/04/07 01:50:33;;;;;;;288.73;278.33;;;-0.10;99.90;;;;;;4934310;29;20552;-81
2021/04/07 01:53:03;;;;;;;307.35;296.15;;;-0.10;99.90;;;;;;4935848;29;20288;-82
2021/04/07 01:55:30;;;;;;;295.17;284.13;;;-0.10;99.90;;;;;;4935648;29;20197;-82
2021/04/07 01:57:56;;;;;;;285.17;274.38;;;-0.20;99.90;;;;;;4935555;29;20461;-82
2021/04/07 02:00:23;;;;;;;293.87;282.70;;;-0.10;99.90;;;;;;4935725;29;20248;-82
2021/04/07 02:02:50;;;;;;;296.13;285.20;;;-0.10;99.90;;;;;;4935682;29;20461;-82
2021/04/07 02:05:17;;;;;;;304.55;292.75;;;0.00;99.90;;;;;;4934764;29;20552;-82
2021/04/07 02:07:44;;;;;;;291.30;280.67;;;-0.10;99.90;;;;;;4935559;29;20200;-82
2021/04/07 02:10:12;;;;;;;294.33;283.57;;;0.00;99.90;;;;;;4935524;29;20228;-82
2021/04/07 02:12:38;;;;;;;306.10;294.67;;;0.00;99.90;;;;;;4935276;29;20472;-82
2021/04/07 02:15:11;;;;;;;313.95;301.40;;;0.00;99.90;;;;;;4935280;29;20872;-82
2021/04/07 02:17:38;;;;;;;294.27;283.05;;;0.00;99.90;;;;;;4935678;29;20619;-82
2021/04/07 02:20:06;;;;;;;303.60;292.60;;;0.00;99.90;;;;;;4934465;29;20228;-82
2021/04/07 02:22:32;;;;;;;296.02;282.13;;;0.10;99.90;;;;;;4934359;29;20207;-82
2021/04/07 02:24:59;;;;;;;294.67;283.55;;;0.00;99.90;;;;;;4935058;29;20660;-82
2021/04/07 02:27:26;;;;;;;297.88;286.65;;;0.00;99.90;;;;;;4935468;29;20201;-82
2021/04/07 02:29:55;;;;;;;300.88;289.80;;;0.10;99.90;;;;;;4935222;29;20300;-82
2021/04/07 02:32:23;;;;;;;301.50;290.40;;;0.10;99.90;;;;;;4935299;29;20225;-82
2021/04/07 02:34:51;;;;;;;287.77;276.80;;;0.10;99.90;;;;;;4935065;29;20189;-82
2021/04/07 02:37:19;;;;;;;288.25;277.55;;;0.20;99.90;;;;;;4934559;29;20465;-82
2021/04/07 02:39:46;;;;;;;297.37;285.87;;;0.20;99.90;;;;;;4935019;29;20217;-82
2021/04/07 02:42:15;;;;;;;301.77;289.20;;;0.20;99.90;;;;;;4935230;29;20465;-82
2021/04/07 02:44:41;;;;;;;290.15;279.10;;;0.20;99.90;;;;;;4934951;29;20264;-82
2021/04/07 02:47:08;;;;;;;280.97;270.27;;;0.30;99.90;;;;;;4935374;29;20256;-82
2021/04/07 02:49:35;;;;;;;289.65;278.10;;;0.20;99.90;;;;;;4934884;29;20555;-81
2021/04/07 02:52:03;;;;;;;288.08;276.90;;;0.20;99.90;;;;;;4933784;29;20193;-82
2021/04/07 02:54:30;;;;;;;307.63;295.85;;;0.10;99.90;;;;;;4934145;29;20657;-82
2021/04/07 02:56:56;;;;;;;292.67;281.77;;;0.30;99.90;;;;;;4934525;29;20335;-82
2021/04/07 02:59:23;;;;;;;296.58;285.33;;;0.10;99.90;;;;;;4933636;29;20645;-81
2021/04/07 03:01:50;;;;;;;292.85;280.75;;;0.10;99.90;;;;;;4927341;29;20202;-82
2021/04/07 03:04:18;;;;;;;301.67;290.17;;;0.10;99.90;;;;;;4916181;29;20201;-82
2021/04/07 03:06:44;;;;;;;306.35;294.58;;;0.10;99.90;;;;;;4918653;29;20573;-81
2021/04/07 03:09:15;;;;;;;298.90;287.20;;;0.10;99.90;;;;;;4934631;29;20574;-82
2021/04/07 03:11:41;;;;;;;314.02;302.08;;;0.10;99.90;;;;;;4935734;29;20219;-81
2021/04/07 03:14:07;;;;;;;308.63;296.83;;;0.10;99.90;;;;;;4923826;29;20765;-82
2021/04/07 03:16:34;;;;;;;292.60;281.05;;;0.10;99.90;;;;;;4928611;29;20193;-82
2021/04/07 03:19:01;;;;;;;307.35;295.55;;;0.10;99.90;;;;;;4938346;29;20189;-80
2021/04/07 03:21:28;;;;;;;307.38;295.58;;;0.10;99.90;;;;;;4935146;29;20280;-81
2021/04/07 03:23:55;;;;;;;293.25;282.35;;;0.20;99.90;;;;;;4938214;29;20197;-81
2021/04/07 03:26:22;;;;;;;301.90;290.73;;;0.10;99.90;;;;;;4937636;29;20252;-80
2021/04/07 03:28:48;;;;;;;302.80;291.00;;;0.20;99.90;;;;;;4938795;29;20268;-80
2021/04/07 03:31:15;;;;;;;312.15;300.42;;;0.20;99.90;;;;;;4938344;29;20575;-80
2021/04/07 03:33:41;;;;;;;288.65;278.15;;;0.30;99.90;;;;;;4937837;29;20216;-80
2021/04/07 03:36:08;;;;;;;323.05;310.50;;;0.30;99.90;;;;;;4936768;29;20207;-80
2021/04/07 03:38:35;;;;;;;291.27;280.58;;;0.30;99.90;;;;;;4937714;29;20209;-82
2021/04/07 03:41:01;;;;;;;286.88;276.38;;;0.30;99.90;;;;;;4938120;29;20217;-82
2021/04/07 03:43:31;;;;;;;301.63;290.20;;;0.20;99.90;;;;;;4938100;29;20200;-81
2021/04/07 03:45:59;;;;;;;308.97;296.93;;;0.40;99.90;;;;;;4937592;29;20464;-81
2021/04/07 03:48:29;;;;;;;308.40;296.85;;;0.30;99.90;;;;;;4937539;29;20476;-81
2021/04/07 03:50:57;;;;;;;306.10;293.33;;;0.40;99.90;;;;;;4936684;29;20271;-81
2021/04/07 03:53:24;;;;;;;295.90;284.57;;;0.40;99.90;;;;;;4937834;29;20493;-84
2021/04/07 03:55:53;;;;;;;291.25;279.92;;;0.40;99.90;;;;;;4937423;29;20464;-82
2021/04/07 03:58:20;;;;;;;309.40;298.27;;;0.30;99.90;;;;;;4937133;29;20207;-82
2021/04/07 04:00:47;;;;;;;293.47;282.17;;;0.40;99.90;;;;;;4936629;29;20461;-81
2021/04/07 04:03:14;;;;;;;296.33;285.33;;;0.40;99.90;;;;;;4919633;29;20475;-81
2021/04/07 04:05:41;;;;;;;296.07;284.67;;;0.50;99.90;;;;;;4923775;29;20453;-81
2021/04/07 04:08:08;;;;;;;289.70;277.73;;;0.40;99.90;;;;;;4936769;29;20488;-81
2021/04/07 04:10:35;;;;;;;291.43;280.17;;;0.30;99.90;;;;;;4931515;29;20469;-82
2021/04/07 04:13:02;;;;;;;294.67;283.13;;;0.40;99.90;;;;;;4934020;29;20461;-81
2021/04/07 04:15:28;;;;;;;291.67;280.57;;;0.40;99.90;;;;;;4936952;29;20476;-81
2021/04/07 04:17:56;;;;;;;295.77;282.77;;;0.40;99.90;;;;;;4936850;29;20485;-81
2021/04/07 04:20:22;;;;;;;298.00;286.67;;;0.50;99.90;;;;;;4935960;29;20660;-81
2021/04/07 04:22:49;;;;;;;302.07;290.47;;;0.50;99.90;;;;;;4936038;29;20988;-81
2021/04/07 04:25:17;;;;;;;290.43;279.33;;;0.40;99.90;;;;;;4936252;29;20568;-81
2021/04/07 04:27:44;;;;;;;295.20;283.80;;;0.40;99.90;;;;;;4936625;29;20488;-81
2021/04/07 04:30:13;;;;;;;288.95;277.92;;;0.50;99.90;;;;;;4936671;29;20489;-81
2021/04/07 04:32:40;;;;;;;276.63;265.27;;;0.40;99.90;;;;;;4936690;29;20204;-81
2021/04/07 04:35:09;;;;;;;281.37;267.50;;;0.50;99.90;;;;;;4936050;29;20488;-80
2021/04/07 04:37:35;;;;;;;300.75;288.25;;;0.40;99.90;;;;;;4938994;29;20465;-81
2021/04/07 04:40:02;;;;;;;284.85;273.13;;;0.50;99.90;;;;;;4936622;29;20582;-83
2021/04/07 04:42:29;;;;;;;288.33;277.00;;;0.50;99.90;;;;;;4936617;29;20201;-81
2021/04/07 04:44:55;;;;;;;286.70;275.13;;;0.50;99.90;;;;;;4923753;29;20468;-80
2021/04/07 04:47:22;;;;;;;281.42;270.05;;;0.50;99.90;;;;;;4936858;29;20883;-80
2021/04/07 04:49:48;;;;;;;286.37;274.87;;;0.50;99.90;;;;;;4936185;29;20224;-81
2021/04/07 04:52:16;;;;;;;274.63;263.40;;;0.50;99.90;;;;;;4935651;29;20461;-81
2021/04/07 04:54:42;;;;;;;272.33;260.80;;;0.50;99.90;;;;;;4936151;29;20625;-81
2021/04/07 04:57:08;;;;;;;282.77;271.57;;;0.60;99.90;;;;;;4936350;29;20877;-81
2021/04/07 04:59:35;;;;;;;277.73;266.52;;;0.50;99.90;;;;;;4936110;29;20572;-81
2021/04/07 05:02:01;;;;;;;272.17;261.40;;;0.50;99.90;;;;;;4936295;29;20209;-81
2021/04/07 05:04:27;;;;;;;274.80;263.67;;;0.50;99.90;;;;;;4936060;29;20953;-81
2021/04/07 05:06:54;;;;;;;279.48;268.27;;;0.50;99.90;;;;;;4935285;29;20457;-81
2021/04/07 05:09:21;;;;;;;286.15;272.00;;;0.50;99.90;;;;;;4936005;29;20251;-81
2021/04/07 05:11:48;;;;;;;285.20;274.10;;;0.50;99.90;;;;;;4936506;29;20201;-82
2021/04/07 05:14:14;;;;;;;275.90;265.20;;;0.50;99.90;;;;;;4936110;29;20645;-81
2021/04/07 05:16:41;;;;;;;279.37;267.83;;;0.60;99.90;;;;;;4936278;29;20460;-81
2021/04/07 05:19:07;;;;;;;301.50;289.57;;;0.60;99.90;;;;;;4936028;29;20460;-82
2021/04/07 05:21:33;;;;;;;272.53;261.83;;;0.60;99.90;;;;;;4934930;29;20484;-81
2021/04/07 05:24:00;;;;;;;265.40;255.13;;;0.60;99.90;;;;;;4936113;29;20467;-80
2021/04/07 05:26:27;;;;;;;277.80;259.90;;;0.60;99.90;;;;;;4935586;29;20461;-80
2021/04/07 05:28:54;;;;;;;258.75;248.10;;;0.50;99.90;;;;;;4935659;29;20488;-81
2021/04/07 05:31:20;;;;;;;264.90;254.60;;;0.50;99.90;;;;;;4935813;29;20193;-81
2021/04/07 05:33:47;;;;;;;268.17;256.90;;;0.60;99.90;;;;;;4935957;29;20457;-81
2021/04/07 05:36:15;;;;;;;276.07;264.87;;;0.60;99.90;;;;;;4934445;29;20507;-82
2021/04/07 05:38:41;;;;;;;267.30;255.47;;;0.60;99.90;;;;;;4935675;29;20520;-82
2021/04/07 05:41:09;;;;;;;262.73;251.80;;;0.60;99.90;;;;;;4935737;29;20501;-82
2021/04/07 05:43:39;;;;;;;262.27;251.27;;;0.50;99.90;;;;;;4932947;29;20810;-81
2021/04/07 05:46:05;;;;;;;254.33;243.40;;;0.60;99.90;;;;;;4923604;29;20965;-80
2021/04/07 05:48:32;;;;;;;270.03;259.03;;;0.60;99.90;;;;;;4916904;29;21052;-81
2021/04/07 05:50:58;;;;;;;258.93;247.50;;;0.60;99.90;;;;;;4934560;29;20457;-81
2021/04/07 05:53:25;;;;;;;251.93;240.97;;;0.60;99.90;;;;;;4935726;29;20547;-80
2021/04/07 05:55:54;;;;;;;240.80;230.73;;;0.60;99.90;;;;;;4935668;29;20471;-80
2021/04/07 05:58:21;;;;;;;254.23;244.13;;;0.60;99.90;;;;;;4935757;29;20468;-80
2021/04/07 06:00:49;;;;;;;258.37;247.87;;;0.70;99.90;;;;;;4934886;29;20276;-82
2021/04/07 06:03:17;;;;;;;258.67;247.87;;;0.60;99.90;;;;;;4935128;29;20461;-82
2021/04/07 06:05:45;;;;;;;242.30;231.90;;;0.60;99.90;;;;;;4934289;29;20492;-82
2021/04/07 06:08:12;;;;;;;246.80;236.93;;;0.60;99.90;;;;;;4935375;29;20476;-82
2021/04/07 06:10:40;;;;;;;216.77;208.07;;;0.70;99.90;;;;;;4935558;29;20460;-82
2021/04/07 06:13:07;;;;;;;243.93;233.87;;;0.60;99.90;;;;;;4935345;29;20453;-81
2021/04/07 06:15:34;;;;;;;251.47;241.23;;;0.70;99.90;;;;;;4935496;29;20493;-82
2021/04/07 06:18:04;;;;;;;239.00;229.13;;;0.60;99.90;;;;;;4935377;29;20460;-82
2021/04/07 06:20:34;;;;;;;238.95;228.63;;;0.80;99.90;;;;;;4933543;29;21053;-81
2021/04/07 06:23:02;;;;;;;247.35;236.95;;;0.70;99.90;;;;;;4934702;29;20193;-83
2021/04/07 06:25:32;;;;;;;246.73;235.50;;;0.70;99.90;;;;;;4934697;29;20185;-83
2021/04/07 06:28:01;;;;;;;254.40;243.23;;;0.70;99.90;;;;;;4934515;29;20196;-83
2021/04/07 06:30:43;;;;;;;246.10;236.23;;;0.70;99.90;;;;;;4934372;29;20221;-82
2021/04/07 06:33:16;;;;;;;252.45;242.05;;;0.60;99.90;;;;;;4931113;29;20464;-83
2021/04/07 06:35:46;;;;;;;270.38;259.23;;;0.70;99.90;;;;;;4934069;29;20208;-82
2021/04/07 06:38:13;;;;;;;273.90;262.80;;;0.80;99.90;;;;;;4933278;29;20213;-82
2021/04/07 06:40:40;;;;;;;237.50;228.18;;;0.70;99.90;;;;;;4934378;29;20463;-81
2021/04/07 06:43:08;;;;;;;235.00;224.10;;;0.80;99.90;;;;;;4934458;29;20553;-83
2021/04/07 06:45:37;;;;;;;244.33;233.33;;;0.80;99.90;;;;;;4934815;29;20520;-83
2021/04/07 06:48:04;;;;;;;251.33;241.20;;;0.80;99.90;;;;;;4937620;29;20464;-82
2021/04/07 06:50:32;;;;;;;250.90;240.80;;;0.80;99.90;;;;;;4937450;29;20488;-83
2021/04/07 06:52:59;;;;;;;247.27;236.57;;;0.90;99.90;;;;;;4937500;29;20460;-81
2021/04/07 06:55:27;;;;;;;233.97;224.60;;;0.90;99.90;;;;;;4936722;29;20528;-80
2021/04/07 06:57:54;;;;;;;231.93;222.37;;;0.90;99.90;;;;;;4934482;29;20456;-84
2021/04/07 07:00:28;;;;;;;235.57;226.27;;;1.00;99.90;;;;;;4937845;29;20495;-80
2021/04/07 07:03:02;;;;;;;242.77;232.43;;;0.90;99.90;;;;;;4937423;29;20460;-84
2021/04/07 07:05:29;;;;;;;227.20;217.80;;;0.90;99.90;;;;;;4936365;29;21329;-83
2021/04/07 07:08:02;;;;;;;228.03;218.80;;;0.90;99.90;;;;;;4937498;29;20475;-81
2021/04/07 07:10:49;;;;;;;202.37;193.53;;;1.00;99.90;;;;;;4920659;29;21234;-84
2021/04/07 07:13:17;;;;;;;216.27;206.95;;;1.00;99.90;;;;;;4937629;29;20830;-84
2021/04/07 07:15:44;;;;;;;227.90;218.27;;;1.00;99.90;;;;;;4938575;29;20216;-83
2021/04/07 07:18:11;;;;;;;196.93;188.63;;;1.10;99.90;;;;;;4938582;29;20457;-84
2021/04/07 07:20:39;;;;;;;205.13;196.23;;;1.10;99.90;;;;;;4932141;29;20457;-85
2021/04/07 07:23:08;;;;;;;207.13;198.30;;;1.10;99.90;;;;;;4920787;29;20553;-84
2021/04/07 07:25:34;;;;;;;210.70;200.90;;;1.10;99.90;;;;;;4928366;29;20512;-83
2021/04/07 07:28:04;;;;;;;210.90;201.63;;;1.10;99.90;;;;;;4934879;29;20449;-82
2021/04/07 07:30:42;;;;;;;201.40;192.97;;;1.00;99.90;;;;;;4936578;29;21026;-80
2021/04/07 07:33:16;;;;;;;204.13;195.40;;;0.90;99.90;;;;;;4937865;29;20871;-83
2021/04/07 07:35:44;;;;;;;211.53;202.33;;;1.00;99.90;;;;;;4936385;29;20484;-82
2021/04/07 07:38:11;;;;;;;175.05;166.70;;;1.00;99.90;;;;;;4936900;29;20933;-83
2021/04/07 07:40:38;;;;;;;199.52;190.90;;;1.00;99.90;;;;;;4938180;29;20819;-82
2021/04/07 07:43:07;;;;;;;206.65;197.70;;;1.10;99.90;;;;;;4938194;29;20255;-82
2021/04/07 07:45:36;;;;;;;193.00;184.17;;;1.00;99.90;;;;;;4938169;29;20197;-82
2021/04/07 07:48:08;;;;;;;184.63;175.70;;;1.00;99.90;;;;;;4937919;29;20944;-82
2021/04/07 07:50:39;;;;;;;190.43;182.13;;;1.00;99.90;;;;;;4936399;29;20586;-82
2021/04/07 07:53:27;;;;;;;189.60;181.00;;;1.10;99.90;;;;;;4937951;29;20604;-82
2021/04/07 07:55:55;;;;;;;208.37;199.23;;;1.30;99.90;;;;;;4932128;29;20971;-82
2021/04/07 07:58:26;;;;;;;190.50;182.30;;;1.30;99.90;;;;;;4937587;29;20477;-81
2021/04/07 08:01:04;;;;;;;200.33;191.60;;;1.30;99.90;;;;;;4937793;29;20955;-81
2021/04/07 08:03:31;;;;;;;188.97;180.53;;;1.30;99.90;;;;;;4937705;29;20532;-80
2021/04/07 08:06:00;;;;;;;188.17;179.87;;;1.40;99.90;;;;;;4936427;29;20453;-81
2021/04/07 08:08:28;;;;;;;170.00;162.50;;;1.40;99.90;;;;;;4937514;29;20532;-80
2021/04/07 08:10:55;;;;;;;191.53;182.67;;;1.40;99.90;;;;;;4937592;29;20527;-81
2021/04/07 08:13:22;;;;;;;179.07;170.98;;;1.40;99.90;;;;;;4937460;29;20471;-80
2021/04/07 08:15:49;;;;;;;175.33;167.63;;;1.30;99.90;;;;;;4937397;29;20204;-80
2021/04/07 08:18:16;;;;;;;167.90;160.33;;;1.30;99.90;;;;;;4937362;29;20984;-80
2021/04/07 08:20:44;;;;;;;176.80;169.10;;;1.20;99.90;;;;;;4936051;29;20548;-80
2021/04/07 08:23:14;;;;;;;176.77;168.87;;;1.40;99.90;;;;;;4937346;29;20539;-80
2021/04/07 08:25:42;;;;;;;169.00;161.40;;;1.40;99.90;;;;;;4937408;29;20540;-80
2021/04/07 08:28:09;;;;;;;161.20;153.40;;;1.30;99.90;;;;;;4937099;29;20492;-81
2021/04/07 08:30:35;;;;;;;164.77;157.30;;;1.30;99.90;;;;;;4937099;29;20788;-81
2021/04/07 08:33:02;;;;;;;161.93;154.73;;;1.20;99.90;;;;;;4937200;29;20544;-80
2021/04/07 08:35:29;;;;;;;159.70;152.40;;;1.10;99.90;;;;;;4935825;29;20917;-80
2021/04/07 08:37:57;;;;;;;159.10;151.80;;;1.00;99.90;;;;;;4936926;29;20499;-82
2021/04/07 08:40:27;;;;;;;155.40;148.30;;;1.00;99.90;;;;;;4937039;29;20464;-82
2021/04/07 08:42:56;;;;;;;173.37;165.67;;;1.20;99.90;;;;;;4936888;29;20486;-82
2021/04/07 08:45:24;;;;;;;160.97;153.70;;;1.20;99.90;;;;;;4936966;29;20969;-82
2021/04/07 08:48:25;;;;;;;163.17;155.87;;;1.20;99.90;;;;;;4937009;29;20850;-82
2021/04/07 08:51:08;;;;;;;163.80;156.25;;;1.10;99.90;;;;;;4935446;29;20488;-81
2021/04/07 08:53:39;;;;;;;159.40;152.33;;;1.40;99.90;;;;;;4936844;29;20196;-81
2021/04/07 08:56:12;;;;;;;164.80;157.20;;;1.50;99.90;;;;;;4936860;29;20548;-81
2021/04/07 08:58:50;;;;;;;171.27;163.40;;;1.50;99.90;;;;;;4938743;29;20468;-81
2021/04/07 09:01:21;;;;;;;163.10;155.80;;;1.50;99.90;;;;;;4936493;29;20468;-81
2021/04/07 09:03:48;;;;;;;163.00;155.60;;;1.60;99.90;;;;;;4936510;29;20457;-81
2021/04/07 09:06:14;;;;;;;171.90;164.00;;;1.40;99.90;;;;;;4935201;29;20489;-81
2021/04/07 09:08:52;;;;;;;164.70;157.40;;;1.50;99.90;;;;;;4936956;29;20480;-81
2021/04/07 09:11:30;;;;;;;146.77;140.17;;;1.60;99.90;;;;;;4936205;29;20456;-81
2021/04/07 09:14:02;;;;;;;159.03;151.63;;;1.50;99.90;;;;;;4936205;29;20547;-81
2021/04/07 09:16:39;;;;;;;163.10;155.73;;;1.70;99.90;;;;;;4936575;29;20469;-82
2021/04/07 09:19:21;;;;;;;172.70;165.00;;;1.80;99.90;;;;;;4936494;29;20460;-82
2021/04/07 09:22:05;;;;;;;148.03;141.30;;;2.10;99.90;;;;;;4935202;29;20461;-81
2021/04/07 09:24:39;;;;;;;144.57;138.27;;;2.10;99.90;;;;;;4936214;29;20523;-81
2021/04/07 09:27:06;;;;;;;146.45;139.45;;;2.00;99.90;;;;;;4934702;29;20821;-80
2021/04/07 09:29:38;;;;;;;148.60;141.70;;;1.80;99.90;;;;;;4935186;29;20216;-81
2021/04/07 09:32:14;;;;;;;130.73;124.32;;;1.70;99.90;;;;;;4934493;29;20565;-81
2021/04/07 09:34:41;;;;;;;141.73;135.33;;;1.90;99.90;;;;;;4935606;29;20228;-80
2021/04/07 09:37:08;;;;;;;151.80;145.00;;;2.00;99.90;;;;;;4934788;29;20457;-81
2021/04/07 09:39:37;;;;;;;141.40;134.40;;;2.10;99.90;;;;;;4934240;29;20461;-83
2021/04/07 09:42:05;;;;;;;149.47;142.47;;;2.20;99.90;;;;;;4935378;29;20201;-81
2021/04/07 09:44:32;;;;;;;142.20;135.80;;;2.10;99.90;;;;;;4936009;29;20893;-81
2021/04/07 09:46:59;;;;;;;138.73;132.43;;;2.00;99.90;;;;;;4935778;29;20871;-81
2021/04/07 09:49:27;;;;;;;136.53;130.60;;;1.80;99.90;;;;;;4935848;29;20476;-80
2021/04/07 09:51:54;;;;;;;131.20;125.30;;;1.60;99.90;;;;;;4933985;29;20457;-80
2021/04/07 09:54:22;;;;;;;132.63;126.57;;;1.40;99.90;;;;;;4935840;29;20456;-81
2021/04/07 09:56:54;;;;;;;137.00;130.90;;;1.50;99.90;;;;;;4935560;29;20548;-81
2021/04/07 09:59:40;;;;;;;129.98;124.18;;;1.70;99.90;;;;;;4935863;29;20468;-81
2021/04/07 10:02:08;;;;;;;117.40;112.20;;;1.80;99.90;;;;;;4935546;29;20289;-80
2021/04/07 10:04:37;;;;;;;123.90;118.40;;;1.80;99.90;;;;;;4935756;29;20457;-81
2021/04/07 10:07:12;;;;;;;130.63;124.97;;;2.00;99.90;;;;;;4934102;29;20966;-81
2021/04/07 10:09:41;;;;;;;131.83;126.00;;;2.20;99.90;;;;;;4935907;29;20492;-81
2021/04/07 10:12:09;;;;;;;129.40;123.70;;;2.40;99.90;;;;;;4935396;29;20508;-81
2021/04/07 10:14:35;;;;;;;144.83;138.03;;;2.40;99.90;;;;;;4934406;29;20548;-81
2021/04/07 10:17:12;;;;;;;143.37;136.73;;;2.70;99.90;;;;;;4935267;29;20525;-81
2021/04/07 10:19:39;;;;;;;136.47;130.37;;;2.90;99.90;;;;;;4926392;29;20461;-82
2021/04/07 10:22:13;;;;;;;143.23;135.90;;;3.00;99.90;;;;;;4933736;29;20500;-82
2021/04/07 10:24:42;;;;;;;134.90;128.80;;;2.90;99.90;;;;;;4937741;29;20468;-82
2021/04/07 10:27:09;;;;;;;129.80;124.00;;;2.80;99.90;;;;;;4938233;29;20828;-82
2021/04/07 10:29:38;;;;;;;129.30;123.50;;;2.70;99.90;;;;;;4937756;29;20531;-83
2021/04/07 10:32:15;;;;;;;;;;;;;;;;;;;;;
2021/04/07 10:34:45;;;;;;;123.27;117.60;;;3.10;99.90;;;;;;4937775;29;20964;-84
2021/04/07 10:37:16;;;;;;;126.63;120.93;;;3.30;99.90;;;;;;4936874;29;20461;-84
2021/04/07 10:39:58;;;;;;;124.13;118.63;;;3.20;99.90;;;;;;4937463;29;20555;-83
2021/04/07 10:42:30;;;;;;;119.07;113.47;;;3.10;99.90;;;;;;4937516;29;20511;-83
2021/04/07 10:45:13;;;;;;;123.53;117.87;;;3.10;99.90;;;;;;4937887;29;20460;-83
2021/04/07 10:47:46;;;;;;;122.30;116.40;;;3.00;99.90;;;;;;4937413;29;20937;-83
2021/04/07 10:50:18;;;;;;;116.77;111.53;;;3.10;99.90;;;;;;4936263;29;20547;-84
2021/04/07 10:52:46;;;;;;;121.20;115.50;;;3.20;99.90;;;;;;4937479;29;20461;-84
2021/04/07 10:55:22;;;;;;;114.87;109.60;;;3.20;99.90;;;;;;4936783;29;21203;-84
2021/04/07 10:57:49;;;;;;;114.47;109.30;;;3.10;99.90;;;;;;4937573;29;20496;-82
2021/04/07 11:00:26;;;;;;;120.40;114.63;;;3.40;99.90;;;;;;4937368;29;20816;-82
2021/04/07 11:02:52;;;;;;;115.23;109.90;;;3.50;99.90;;;;;;4937056;29;20464;-82
2021/04/07 11:05:23;;;;;;;120.70;114.70;;;3.80;99.90;;;;;;4934555;29;20893;-82
2021/04/07 11:08:01;;;;;;;117.93;112.27;;;3.70;99.90;;;;;;4936454;29;20498;-82
2021/04/07 11:10:27;;;;;;;109.83;104.50;;;3.80;99.90;;;;;;4930781;29;20492;-81
2021/04/07 11:12:54;;;;;;;118.40;112.87;;;3.60;99.90;;;;;;4935173;29;21354;-82
2021/04/07 11:15:27;;;;;;;110.17;104.97;;;3.70;99.90;;;;;;4937033;29;20501;-83
2021/04/07 11:17:55;;;;;;;115.27;108.97;;;3.90;99.90;;;;;;4937364;29;20464;-82
2021/04/07 11:20:25;;;;;;;112.27;107.37;;;3.70;99.90;;;;;;4936316;29;20896;-82
2021/04/07 11:22:54;;;;;;;105.90;99.90;;;3.90;99.90;;;;;;4937043;29;20524;-83
2021/04/07 11:25:21;;;;;;;129.85;122.82;;;4.00;99.90;;;;;;4935472;29;20469;-83
2021/04/07 11:27:51;;;;;;;125.17;118.27;;;4.20;99.90;;;;;;4937159;29;20253;-84
2021/04/07 11:30:18;;;;;;;122.07;116.27;;;4.40;99.90;;;;;;4939547;29;20828;-83
2021/04/07 11:32:51;;;;;;;121.67;115.90;;;4.50;99.90;;;;;;4936465;29;20508;-83
2021/04/07 11:35:21;;;;;;;111.13;106.00;;;4.40;99.90;;;;;;4935763;29;20468;-82
2021/04/07 11:37:52;;;;;;;111.60;106.50;;;4.00;99.90;;;;;;4936698;29;20988;-82
2021/04/07 11:40:39;;;;;;;108.10;102.70;;;3.80;99.90;;;;;;4936824;29;20460;-83
2021/04/07 11:43:11;;;;;;;109.93;104.47;;;3.90;99.90;;;;;;4936998;29;20460;-84
2021/04/07 11:45:39;;;;;;;114.70;109.00;;;4.20;99.90;;;;;;4937095;29;20465;-83
2021/04/07 11:48:08;;;;;;;112.87;107.47;;;4.60;99.90;;;;;;4936892;29;20787;-83
2021/04/07 11:50:35;;;;;;;109.47;104.47;;;4.70;99.90;;;;;;4935343;29;20492;-83
2021/04/07 11:53:09;;;;;;;106.30;101.13;;;4.60;99.90;;;;;;4936482;29;20979;-83
2021/04/07 11:55:46;;;;;;;109.77;103.70;;;4.40;99.90;;;;;;4936685;29;21018;-83
2021/04/07 11:58:20;;;;;;;107.80;102.57;;;4.50;99.90;;;;;;4936544;29;20457;-83
2021/04/07 12:00:51;;;;;;;103.50;98.60;;;4.70;99.90;;;;;;4936553;29;20567;-84
2021/04/07 12:03:23;;;;;;;97.10;92.00;;;4.80;99.90;;;;;;4936658;29;20465;-83
2021/04/07 12:05:50;;;;;;;95.03;90.63;;;4.80;99.90;;;;;;4935010;29;20965;-84
2021/04/07 12:08:18;;;;;;;98.47;93.97;;;4.60;99.90;;;;;;4936174;29;20484;-83
2021/04/07 12:10:46;;;;;;;97.23;92.80;;;4.70;99.90;;;;;;4936566;29;20580;-83
2021/04/07 12:13:17;;;;;;;97.20;92.30;;;4.80;99.90;;;;;;4936964;29;21013;-84
2021/04/07 12:15:51;;;;;;;100.80;94.90;;;4.90;99.90;;;;;;4937234;29;20464;-84
2021/04/07 12:18:18;;;;;;;103.17;97.37;;;5.00;99.90;;;;;;4936630;29;20946;-83
2021/04/07 12:20:45;;;;;;;97.67;93.10;;;5.40;99.90;;;;;;4936287;29;20524;-83
2021/04/07 12:23:11;;;;;;;91.70;87.37;;;5.70;99.90;;;;;;4937129;29;20464;-84
2021/04/07 12:25:38;;;;;;;93.43;88.47;;;5.70;99.90;;;;;;4937186;29;20548;-83
2021/04/07 12:28:06;;;;;;;78.00;74.23;;;5.70;99.90;;;;;;4936903;29;20479;-83